createdAt,value
2022-09-25T00:00:44.200Z,7.39
2022-09-25T00:01:44.204Z,7.36
2022-09-25T00:02:44.264Z,7.36
2022-09-25T00:03:44.145Z,7.42
2022-09-25T00:04:44.119Z,7.48
2022-09-25T00:05:44.137Z,7.50
2022-09-25T00:06:44.094Z,7.48
2022-09-25T00:07:44.079Z,7.53
2022-09-25T00:08:44.056Z,7.51
2022-09-25T00:09:44.048Z,7.54
2022-09-25T00:10:44.070Z,7.56
2022-09-25T00:11:44.040Z,7.57
2022-09-25T00:12:44.032Z,7.60
2022-09-25T00:13:44.012Z,7.61
2022-09-25T00:14:44.015Z,7.67
2022-09-25T00:15:44.036Z,7.73
2022-09-25T00:16:44.090Z,7.75
2022-09-25T00:17:43.976Z,7.77
2022-09-25T00:18:43.982Z,7.72
2022-09-25T00:19:43.960Z,7.70
2022-09-25T00:20:43.961Z,7.66
2022-09-25T00:21:43.935Z,7.58
2022-09-25T00:22:43.912Z,7.57
2022-09-25T00:23:43.904Z,7.57
2022-09-25T00:24:43.894Z,7.58
2022-09-25T00:25:43.921Z,7.54
2022-09-25T00:26:43.874Z,7.50
2022-09-25T00:27:43.860Z,7.47
2022-09-25T00:28:43.855Z,7.38
2022-09-25T00:29:43.849Z,7.31
2022-09-25T00:30:43.899Z,7.25
2022-09-25T00:31:43.820Z,7.23
2022-09-25T00:32:43.811Z,7.23
2022-09-25T00:33:43.808Z,7.21
2022-09-25T00:34:43.781Z,7.20
2022-09-25T00:35:43.801Z,7.20
2022-09-25T00:36:43.756Z,7.17
2022-09-25T00:37:43.760Z,7.21
2022-09-25T00:38:43.723Z,7.25
2022-09-25T00:39:43.711Z,7.29
2022-09-25T00:40:43.825Z,7.38
2022-09-25T00:41:43.692Z,7.39
2022-09-25T00:42:43.703Z,7.43
2022-09-25T00:43:43.682Z,7.45
2022-09-25T00:44:43.677Z,7.38
2022-09-25T00:45:43.757Z,7.35
2022-09-25T00:46:43.657Z,7.32
2022-09-25T00:47:43.636Z,7.29
2022-09-25T00:48:43.620Z,7.25
2022-09-25T00:49:43.617Z,7.21
2022-09-25T00:50:43.645Z,7.15
2022-09-25T00:51:43.599Z,7.17
2022-09-25T00:52:43.571Z,7.20
2022-09-25T00:53:43.575Z,7.20
2022-09-25T00:54:43.555Z,7.20
2022-09-25T00:55:43.580Z,7.14
2022-09-25T00:56:43.536Z,7.10
2022-09-25T00:57:43.527Z,7.13
2022-09-25T00:58:43.515Z,7.15
2022-09-25T00:59:43.506Z,7.14
2022-09-25T01:00:43.523Z,7.21
2022-09-25T01:01:43.540Z,7.24
2022-09-25T01:02:43.512Z,7.21
2022-09-25T01:03:43.486Z,7.20
2022-09-25T01:04:43.451Z,7.23
2022-09-25T01:05:43.475Z,7.29
2022-09-25T01:06:43.418Z,7.31
2022-09-25T01:07:43.416Z,7.32
2022-09-25T01:08:43.396Z,7.32
2022-09-25T01:09:43.386Z,7.31
2022-09-25T01:10:43.389Z,7.24
2022-09-25T01:11:43.342Z,7.21
2022-09-25T01:12:43.340Z,7.17
2022-09-25T01:13:43.322Z,7.13
2022-09-25T01:14:43.337Z,7.14
2022-09-25T01:15:43.360Z,7.13
2022-09-25T01:16:43.350Z,7.11
2022-09-25T01:17:43.303Z,7.06
2022-09-25T01:18:43.279Z,7.03
2022-09-25T01:19:43.280Z,7.02
2022-09-25T01:20:43.305Z,7.00
2022-09-25T01:21:43.258Z,6.99
2022-09-25T01:22:43.242Z,7.00
2022-09-25T01:23:43.222Z,7.11
2022-09-25T01:24:43.211Z,7.24
2022-09-25T01:25:43.248Z,7.32
2022-09-25T01:26:43.196Z,7.35
2022-09-25T01:27:43.181Z,7.38
2022-09-25T01:28:43.176Z,7.32
2022-09-25T01:29:43.153Z,7.23
2022-09-25T01:30:43.255Z,7.14
2022-09-25T01:31:43.162Z,7.11
2022-09-25T01:32:43.140Z,7.11
2022-09-25T01:33:43.126Z,7.11
2022-09-25T01:34:43.093Z,7.10
2022-09-25T01:35:43.145Z,7.07
2022-09-25T01:36:43.115Z,7.13
2022-09-25T01:37:43.053Z,7.17
2022-09-25T01:38:43.034Z,7.21
2022-09-25T01:39:43.035Z,7.24
2022-09-25T01:40:43.161Z,7.25
2022-09-25T01:41:43.052Z,7.25
2022-09-25T01:42:42.991Z,7.23
2022-09-25T01:43:42.981Z,7.23
2022-09-25T01:44:42.969Z,7.15
2022-09-25T01:45:43.020Z,7.10
2022-09-25T01:46:42.961Z,7.05
2022-09-25T01:47:42.961Z,6.95
2022-09-25T01:48:42.932Z,6.89
2022-09-25T01:49:42.915Z,6.88
2022-09-25T01:50:42.933Z,6.88
2022-09-25T01:51:42.894Z,6.88
2022-09-25T01:52:42.874Z,6.87
2022-09-25T01:53:45.825Z,6.87
2022-09-25T01:54:43.851Z,6.87
2022-09-25T01:55:42.912Z,6.85
2022-09-25T01:56:42.827Z,6.79
2022-09-25T01:57:42.844Z,6.75
2022-09-25T01:58:42.816Z,6.67
2022-09-25T01:59:42.820Z,6.63
2022-09-25T02:00:42.854Z,6.56
2022-09-25T02:01:42.961Z,6.49
2022-09-25T02:02:42.947Z,6.44
2022-09-25T02:03:42.760Z,6.39
2022-09-25T02:04:42.764Z,6.38
2022-09-25T02:05:42.746Z,6.33
2022-09-25T02:06:42.764Z,6.35
2022-09-25T02:07:42.720Z,6.41
2022-09-25T02:08:42.696Z,6.48
2022-09-25T02:09:42.701Z,6.56
2022-09-25T02:10:42.726Z,6.64
2022-09-25T02:11:42.669Z,6.67
2022-09-25T02:12:42.668Z,6.66
2022-09-25T02:13:42.636Z,6.66
2022-09-25T02:14:42.627Z,6.66
2022-09-25T02:15:42.639Z,6.63
2022-09-25T02:16:42.652Z,6.63
2022-09-25T02:17:42.601Z,6.62
2022-09-25T02:18:42.607Z,6.59
2022-09-25T02:19:42.557Z,6.54
2022-09-25T02:20:42.616Z,6.52
2022-09-25T02:21:42.561Z,6.51
2022-09-25T02:22:42.544Z,6.46
2022-09-25T02:23:42.545Z,6.42
2022-09-25T02:24:42.522Z,6.38
2022-09-25T02:25:42.548Z,6.33
2022-09-25T02:26:42.539Z,6.30
2022-09-25T02:27:42.467Z,6.26
2022-09-25T02:28:42.474Z,6.22
2022-09-25T02:29:42.451Z,6.14
2022-09-25T02:30:42.528Z,6.09
2022-09-25T02:31:42.434Z,6.05
2022-09-25T02:32:42.423Z,5.94
2022-09-25T02:33:42.412Z,5.87
2022-09-25T02:34:42.409Z,5.93
2022-09-25T02:35:42.442Z,6.01
2022-09-25T02:36:42.384Z,6.08
2022-09-25T02:37:42.376Z,6.12
2022-09-25T02:38:42.369Z,6.14
2022-09-25T02:39:42.335Z,6.09
2022-09-25T02:40:42.444Z,6.07
2022-09-25T02:41:42.342Z,6.09
2022-09-25T02:42:42.329Z,6.12
2022-09-25T02:43:42.327Z,6.16
2022-09-25T02:44:42.302Z,6.17
2022-09-25T02:45:42.380Z,6.09
2022-09-25T02:46:42.261Z,6.08
2022-09-25T02:47:42.243Z,6.12
2022-09-25T02:48:42.274Z,6.11
2022-09-25T02:49:42.235Z,6.12
2022-09-25T02:50:42.279Z,6.12
2022-09-25T02:51:42.231Z,6.14
2022-09-25T02:52:42.237Z,6.12
2022-09-25T02:53:42.192Z,6.17
2022-09-25T02:54:42.201Z,6.20
2022-09-25T02:55:42.222Z,6.19
2022-09-25T02:56:42.164Z,6.22
2022-09-25T02:57:42.149Z,6.24
2022-09-25T02:58:42.134Z,6.22
2022-09-25T02:59:42.132Z,6.17
2022-09-25T03:00:42.169Z,6.20
2022-09-25T03:01:42.158Z,6.30
2022-09-25T03:02:42.160Z,6.31
2022-09-25T03:03:42.067Z,6.36
2022-09-25T03:04:42.082Z,6.39
2022-09-25T03:05:42.108Z,6.38
2022-09-25T03:06:42.065Z,6.39
2022-09-25T03:07:42.042Z,6.48
2022-09-25T03:08:42.048Z,6.45
2022-09-25T03:09:42.015Z,6.41
2022-09-25T03:10:42.045Z,6.42
2022-09-25T03:11:42.017Z,6.38
2022-09-25T03:12:41.987Z,6.28
2022-09-25T03:13:41.977Z,6.24
2022-09-25T03:14:41.969Z,6.17
2022-09-25T03:15:41.982Z,6.12
2022-09-25T03:16:41.984Z,6.19
2022-09-25T03:17:41.906Z,6.26
2022-09-25T03:18:41.910Z,6.27
2022-09-25T03:19:41.880Z,6.22
2022-09-25T03:20:42.066Z,6.27
2022-09-25T03:21:41.874Z,6.33
2022-09-25T03:22:41.868Z,6.39
2022-09-25T03:23:41.850Z,6.46
2022-09-25T03:24:41.843Z,6.51
2022-09-25T03:25:44.768Z,6.51
2022-09-25T03:26:42.823Z,6.54
2022-09-25T03:27:41.810Z,6.49
2022-09-25T03:28:41.806Z,6.49
2022-09-25T03:29:41.774Z,6.45
2022-09-25T03:30:41.863Z,6.41
2022-09-25T03:31:41.755Z,6.38
2022-09-25T03:32:41.760Z,6.33
2022-09-25T03:33:41.734Z,6.33
2022-09-25T03:34:41.729Z,6.35
2022-09-25T03:35:41.759Z,6.35
2022-09-25T03:36:41.706Z,6.27
2022-09-25T03:37:41.698Z,6.26
2022-09-25T03:38:41.677Z,6.24
2022-09-25T03:39:41.664Z,6.24
2022-09-25T03:40:41.728Z,6.26
2022-09-25T03:41:41.647Z,6.27
2022-09-25T03:42:41.640Z,6.24
2022-09-25T03:43:41.616Z,6.22
2022-09-25T03:44:41.615Z,6.17
2022-09-25T03:45:41.664Z,6.11
2022-09-25T03:46:41.588Z,6.14
2022-09-25T03:47:41.580Z,6.19
2022-09-25T03:48:41.569Z,6.22
2022-09-25T03:49:41.548Z,6.24
2022-09-25T03:50:41.572Z,6.22
2022-09-25T03:51:41.515Z,6.20
2022-09-25T03:52:41.515Z,6.20
2022-09-25T03:53:41.490Z,6.20
2022-09-25T03:54:41.491Z,6.20
2022-09-25T03:55:41.526Z,6.19
2022-09-25T03:56:41.468Z,6.08
2022-09-25T03:57:41.495Z,6.02
2022-09-25T03:58:41.462Z,5.94
2022-09-25T03:59:41.436Z,5.86
2022-09-25T04:00:41.478Z,5.80
2022-09-25T04:01:41.508Z,5.79
2022-09-25T04:02:41.469Z,5.79
2022-09-25T04:03:41.399Z,5.76
2022-09-25T04:04:41.387Z,5.75
2022-09-25T04:05:41.410Z,5.73
2022-09-25T04:06:41.367Z,5.72
2022-09-25T04:07:41.357Z,5.73
2022-09-25T04:08:41.339Z,5.72
2022-09-25T04:09:41.330Z,5.71
2022-09-25T04:10:41.350Z,5.71
2022-09-25T04:11:41.309Z,5.76
2022-09-25T04:12:41.307Z,5.79
2022-09-25T04:13:41.281Z,5.79
2022-09-25T04:14:41.271Z,5.76
2022-09-25T04:15:41.299Z,5.80
2022-09-25T04:16:41.299Z,5.76
2022-09-25T04:17:41.235Z,5.71
2022-09-25T04:18:41.228Z,5.68
2022-09-25T04:19:41.224Z,5.62
2022-09-25T04:20:41.248Z,5.54
2022-09-25T04:21:41.189Z,5.48
2022-09-25T04:22:41.191Z,5.41
2022-09-25T04:23:41.176Z,5.35
2022-09-25T04:24:41.150Z,5.29
2022-09-25T04:25:41.183Z,5.23
2022-09-25T04:26:41.138Z,5.18
2022-09-25T04:27:41.124Z,5.17
2022-09-25T04:28:41.124Z,5.14
2022-09-25T04:29:41.110Z,5.10
2022-09-25T04:30:41.137Z,5.11
2022-09-25T04:31:41.124Z,5.15
2022-09-25T04:32:41.081Z,5.18
2022-09-25T04:33:41.056Z,5.26
2022-09-25T04:34:41.050Z,5.26
2022-09-25T04:35:41.077Z,5.28
2022-09-25T04:36:41.033Z,5.28
2022-09-25T04:37:41.013Z,5.25
2022-09-25T04:38:41.000Z,5.23
2022-09-25T04:39:40.993Z,5.18
2022-09-25T04:40:41.130Z,5.15
2022-09-25T04:41:40.955Z,5.15
2022-09-25T04:42:40.993Z,5.10
2022-09-25T04:43:40.947Z,5.07
2022-09-25T04:44:40.933Z,5.05
2022-09-25T04:45:40.958Z,5.08
2022-09-25T04:46:40.964Z,5.08
2022-09-25T04:47:40.907Z,5.10
2022-09-25T04:48:40.891Z,5.08
2022-09-25T04:49:40.876Z,5.05
2022-09-25T04:50:40.911Z,5.02
2022-09-25T04:51:40.856Z,4.97
2022-09-25T04:52:40.872Z,4.99
2022-09-25T04:53:40.836Z,4.94
2022-09-25T04:54:40.875Z,4.96
2022-09-25T04:55:40.815Z,5.02
2022-09-25T04:56:40.796Z,5.07
2022-09-25T04:57:57.772Z,5.11
2022-09-25T04:58:41.773Z,5.14
2022-09-25T04:59:40.758Z,5.17
2022-09-25T05:00:40.800Z,5.15
2022-09-25T05:01:40.907Z,5.23
2022-09-25T05:02:40.803Z,5.32
2022-09-25T05:03:40.885Z,5.36
2022-09-25T05:04:40.716Z,5.43
2022-09-25T05:05:40.736Z,5.46
2022-09-25T05:06:40.691Z,5.47
2022-09-25T05:07:40.679Z,5.44
2022-09-25T05:08:40.676Z,5.44
2022-09-25T05:09:40.655Z,5.46
2022-09-25T05:10:40.679Z,5.43
2022-09-25T05:11:40.621Z,5.41
2022-09-25T05:12:40.625Z,5.38
2022-09-25T05:13:40.611Z,5.35
2022-09-25T05:14:40.615Z,5.32
2022-09-25T05:15:40.687Z,5.33
2022-09-25T05:16:40.632Z,5.35
2022-09-25T05:17:40.563Z,5.33
2022-09-25T05:18:40.543Z,5.35
2022-09-25T05:19:40.557Z,5.44
2022-09-25T05:20:40.563Z,5.56
2022-09-25T05:21:40.521Z,5.68
2022-09-25T05:22:40.512Z,5.82
2022-09-25T05:23:40.486Z,5.93
2022-09-25T05:24:40.500Z,6.01
2022-09-25T05:25:40.506Z,6.11
2022-09-25T05:26:40.471Z,6.19
2022-09-25T05:27:40.478Z,6.27
2022-09-25T05:28:40.440Z,6.35
2022-09-25T05:29:40.426Z,6.42
2022-09-25T05:30:40.446Z,6.49
2022-09-25T05:31:40.431Z,6.62
2022-09-25T05:32:40.403Z,6.72
2022-09-25T05:33:40.379Z,6.82
2022-09-25T05:34:40.394Z,6.92
2022-09-25T05:35:40.386Z,7.00
2022-09-25T05:36:40.345Z,7.07
2022-09-25T05:37:40.343Z,7.13
2022-09-25T05:38:40.344Z,7.20
2022-09-25T05:39:40.310Z,7.25
2022-09-25T05:40:40.399Z,7.31
2022-09-25T05:41:40.296Z,7.38
2022-09-25T05:42:40.296Z,7.42
2022-09-25T05:43:40.291Z,7.47
2022-09-25T05:44:40.254Z,7.53
2022-09-25T05:45:40.275Z,7.57
2022-09-25T05:46:40.303Z,7.63
2022-09-25T05:47:40.218Z,7.72
2022-09-25T05:48:40.218Z,7.77
2022-09-25T05:49:40.194Z,7.82
2022-09-25T05:50:40.234Z,7.90
2022-09-25T05:51:40.175Z,7.94
2022-09-25T05:52:40.176Z,8.00
2022-09-25T05:53:40.149Z,8.06
2022-09-25T05:54:40.146Z,8.13
2022-09-25T05:55:40.168Z,8.13
2022-09-25T05:56:40.127Z,8.16
2022-09-25T05:57:40.112Z,8.23
2022-09-25T05:58:40.114Z,8.27
2022-09-25T05:59:40.085Z,8.30
2022-09-25T06:00:40.108Z,8.33
2022-09-25T06:01:40.114Z,8.36
2022-09-25T06:02:40.142Z,8.38
2022-09-25T06:03:40.035Z,8.44
2022-09-25T06:04:40.028Z,8.49
2022-09-25T06:05:40.043Z,8.53
2022-09-25T06:06:40.000Z,8.55
2022-09-25T06:07:39.994Z,8.61
2022-09-25T06:08:39.990Z,8.69
2022-09-25T06:09:39.971Z,8.73
2022-09-25T06:10:40.004Z,8.78
2022-09-25T06:11:39.954Z,8.76
2022-09-25T06:12:39.976Z,8.74
2022-09-25T06:13:39.927Z,8.76
2022-09-25T06:14:39.913Z,8.81
2022-09-25T06:15:39.992Z,8.85
2022-09-25T06:16:39.895Z,8.91
2022-09-25T06:17:39.877Z,8.92
2022-09-25T06:18:39.870Z,8.88
2022-09-25T06:19:39.859Z,8.89
2022-09-25T06:20:39.889Z,8.92
2022-09-25T06:21:39.832Z,8.95
2022-09-25T06:22:39.837Z,8.99
2022-09-25T06:23:39.813Z,9.02
2022-09-25T06:24:39.801Z,9.08
2022-09-25T06:25:39.845Z,9.10
2022-09-25T06:26:39.791Z,9.14
2022-09-25T06:27:39.772Z,9.16
2022-09-25T06:28:39.751Z,9.16
2022-09-25T06:29:39.758Z,9.16
2022-09-25T06:30:39.780Z,9.18
2022-09-25T06:31:39.762Z,9.21
2022-09-25T06:32:39.726Z,9.19
2022-09-25T06:33:39.712Z,9.25
2022-09-25T06:34:39.698Z,9.26
2022-09-25T06:35:39.720Z,9.31
2022-09-25T06:36:39.665Z,9.34
2022-09-25T06:37:39.651Z,9.37
2022-09-25T06:38:39.638Z,9.44
2022-09-25T06:39:39.642Z,9.55
2022-09-25T06:40:39.706Z,9.65
2022-09-25T06:41:39.629Z,9.68
2022-09-25T06:42:39.599Z,9.64
2022-09-25T06:43:39.591Z,9.59
2022-09-25T06:44:39.582Z,9.62
2022-09-25T06:45:39.611Z,9.64
2022-09-25T06:46:39.629Z,9.65
2022-09-25T06:47:39.547Z,9.66
2022-09-25T06:48:39.522Z,9.65
2022-09-25T06:49:39.520Z,9.66
2022-09-25T06:50:39.548Z,9.69
2022-09-25T06:51:39.513Z,9.76
2022-09-25T06:52:39.481Z,9.80
2022-09-25T06:53:39.484Z,9.80
2022-09-25T06:54:43.801Z,9.83
2022-09-25T06:55:39.493Z,9.86
2022-09-25T06:56:39.444Z,9.83
2022-09-25T06:57:39.458Z,9.83
2022-09-25T06:58:39.439Z,9.92
2022-09-25T06:59:39.423Z,10.04
2022-09-25T07:00:39.429Z,10.13
2022-09-25T07:01:39.417Z,10.22
2022-09-25T07:02:39.396Z,10.28
2022-09-25T07:03:39.371Z,10.26
2022-09-25T07:04:39.351Z,10.26
2022-09-25T07:05:39.381Z,10.26
2022-09-25T07:06:39.334Z,10.34
2022-09-25T07:07:39.330Z,10.38
2022-09-25T07:08:39.322Z,10.37
2022-09-25T07:09:39.288Z,10.41
2022-09-25T07:10:42.749Z,10.48
2022-09-25T07:11:40.288Z,10.59
2022-09-25T07:12:39.263Z,10.60
2022-09-25T07:13:39.250Z,10.67
2022-09-25T07:14:39.239Z,10.69
2022-09-25T07:15:39.304Z,10.76
2022-09-25T07:16:39.214Z,10.82
2022-09-25T07:17:39.213Z,10.87
2022-09-25T07:18:39.190Z,10.72
2022-09-25T07:19:39.184Z,10.72
2022-09-25T07:20:39.199Z,10.79
2022-09-25T07:21:39.158Z,10.78
2022-09-25T07:22:39.147Z,10.87
2022-09-25T07:23:39.138Z,10.92
2022-09-25T07:24:39.117Z,10.99
2022-09-25T07:25:39.142Z,11.05
2022-09-25T07:26:43.082Z,11.12
2022-09-25T07:27:39.092Z,11.18
2022-09-25T07:28:39.087Z,11.23
2022-09-25T07:29:39.073Z,11.25
2022-09-25T07:30:39.170Z,11.33
2022-09-25T07:31:39.100Z,11.45
2022-09-25T07:32:39.034Z,11.41
2022-09-25T07:33:39.029Z,11.54
2022-09-25T07:34:39.016Z,11.68
2022-09-25T07:35:39.049Z,11.80
2022-09-25T07:36:38.981Z,11.94
2022-09-25T07:37:38.973Z,11.88
2022-09-25T07:38:38.964Z,11.97
2022-09-25T07:39:38.980Z,12.10
2022-09-25T07:40:39.034Z,12.24
2022-09-25T07:41:38.941Z,12.28
2022-09-25T07:42:38.944Z,12.39
2022-09-25T07:43:38.914Z,12.58
2022-09-25T07:44:39.528Z,12.75
2022-09-25T07:45:38.924Z,12.80
2022-09-25T07:46:38.892Z,12.91
2022-09-25T07:47:38.870Z,12.98
2022-09-25T07:48:38.856Z,13.12
2022-09-25T07:49:38.842Z,13.01
2022-09-25T07:50:38.863Z,13.18
2022-09-25T07:51:38.830Z,13.27
2022-09-25T07:52:38.800Z,13.33
2022-09-25T07:53:38.797Z,13.49
2022-09-25T07:54:38.793Z,13.39
2022-09-25T07:55:38.813Z,13.47
2022-09-25T07:56:38.760Z,13.50
2022-09-25T07:57:38.758Z,13.53
2022-09-25T07:58:38.739Z,13.65
2022-09-25T07:59:38.727Z,13.79
2022-09-25T08:00:38.765Z,13.85
2022-09-25T08:01:43.984Z,13.81
2022-09-25T08:02:39.789Z,13.93
2022-09-25T08:03:38.693Z,13.78
2022-09-25T08:04:38.668Z,13.72
2022-09-25T08:05:38.703Z,13.70
2022-09-25T08:06:38.639Z,13.75
2022-09-25T08:07:38.644Z,13.68
2022-09-25T08:08:38.621Z,13.65
2022-09-25T08:09:38.618Z,13.59
2022-09-25T08:10:38.643Z,13.56
2022-09-25T08:11:38.605Z,13.63
2022-09-25T08:12:38.576Z,13.72
2022-09-25T08:13:38.575Z,13.74
2022-09-25T08:14:38.556Z,13.83
2022-09-25T08:15:38.588Z,13.93
2022-09-25T08:16:38.519Z,14.11
2022-09-25T08:17:38.533Z,14.43
2022-09-25T08:18:38.526Z,14.55
2022-09-25T08:19:38.505Z,14.69
2022-09-25T08:20:38.553Z,14.72
2022-09-25T08:21:38.485Z,14.59
2022-09-25T08:22:38.474Z,14.60
2022-09-25T08:23:38.450Z,14.63
2022-09-25T08:24:38.439Z,14.63
2022-09-25T08:25:38.476Z,14.77
2022-09-25T08:26:38.422Z,14.82
2022-09-25T08:27:38.401Z,14.94
2022-09-25T08:28:38.402Z,14.96
2022-09-25T08:29:38.384Z,15.00
2022-09-25T08:30:38.503Z,15.61
2022-09-25T08:31:38.398Z,16.26
2022-09-25T08:32:38.356Z,17.09
2022-09-25T08:33:38.355Z,17.80
2022-09-25T08:34:42.076Z,18.40
2022-09-25T08:35:38.374Z,18.77
2022-09-25T08:36:38.333Z,19.00
2022-09-25T08:37:38.300Z,19.48
2022-09-25T08:38:38.282Z,19.51
2022-09-25T08:39:38.276Z,19.55
2022-09-25T08:40:39.926Z,19.76
2022-09-25T08:41:38.253Z,19.76
2022-09-25T08:42:38.243Z,19.88
2022-09-25T08:43:38.248Z,19.96
2022-09-25T08:44:38.209Z,20.34
2022-09-25T08:45:38.247Z,20.09
2022-09-25T08:46:38.227Z,20.47
2022-09-25T08:47:38.186Z,20.90
2022-09-25T08:48:38.163Z,21.11
2022-09-25T08:49:38.165Z,21.05
2022-09-25T08:50:38.190Z,21.22
2022-09-25T08:51:38.134Z,21.14
2022-09-25T08:52:38.121Z,20.82
2022-09-25T08:53:38.122Z,21.07
2022-09-25T08:54:40.922Z,21.30
2022-09-25T08:55:39.131Z,20.96
2022-09-25T08:56:38.092Z,20.37
2022-09-25T08:57:38.090Z,20.32
2022-09-25T08:58:38.073Z,20.65
2022-09-25T08:59:38.063Z,21.25
2022-09-25T09:00:38.073Z,21.88
2022-09-25T09:01:38.102Z,22.30
2022-09-25T09:02:38.046Z,22.66
2022-09-25T09:03:38.003Z,22.88
2022-09-25T09:04:38.030Z,22.65
2022-09-25T09:05:38.024Z,22.93
2022-09-25T09:06:37.972Z,23.02
2022-09-25T09:07:37.968Z,22.78
2022-09-25T09:08:37.947Z,22.99
2022-09-25T09:09:37.943Z,23.20
2022-09-25T09:10:37.958Z,23.17
2022-09-25T09:11:37.926Z,23.08
2022-09-25T09:12:37.916Z,23.31
2022-09-25T09:13:37.905Z,23.47
2022-09-25T09:14:37.884Z,23.63
2022-09-25T09:15:37.981Z,23.73
2022-09-25T09:16:37.870Z,23.48
2022-09-25T09:17:37.856Z,23.51
2022-09-25T09:18:37.826Z,23.93
2022-09-25T09:19:37.833Z,24.11
2022-09-25T09:20:37.859Z,24.32
2022-09-25T09:21:37.813Z,24.36
2022-09-25T09:22:37.822Z,24.33
2022-09-25T09:23:37.783Z,23.87
2022-09-25T09:24:37.758Z,23.76
2022-09-25T09:25:37.790Z,24.08
2022-09-25T09:26:37.753Z,23.68
2022-09-25T09:27:37.754Z,23.48
2022-09-25T09:28:37.729Z,22.98
2022-09-25T09:29:37.725Z,23.23
2022-09-25T09:30:37.810Z,23.39
2022-09-25T09:31:37.695Z,23.39
2022-09-25T09:32:37.691Z,23.66
2022-09-25T09:33:37.672Z,23.55
2022-09-25T09:35:01.067Z,23.80
2022-09-25T09:35:38.654Z,24.08
2022-09-25T09:36:37.644Z,24.03
2022-09-25T09:37:37.644Z,24.47
2022-09-25T09:38:37.601Z,24.78
2022-09-25T09:39:37.654Z,24.81
2022-09-25T09:40:37.651Z,25.13
2022-09-25T09:41:37.594Z,25.47
2022-09-25T09:42:37.570Z,25.22
2022-09-25T09:43:37.565Z,24.32
2022-09-25T09:44:37.583Z,24.57
2022-09-25T09:45:37.538Z,24.85
2022-09-25T09:46:37.550Z,24.96
2022-09-25T09:47:37.519Z,25.25
2022-09-25T09:48:37.518Z,25.51
2022-09-25T09:49:37.578Z,25.73
2022-09-25T09:50:42.436Z,25.68
2022-09-25T09:51:38.490Z,25.73
2022-09-25T09:52:37.459Z,25.73
2022-09-25T09:53:37.458Z,25.95
2022-09-25T09:54:37.443Z,26.03
2022-09-25T09:55:37.462Z,25.75
2022-09-25T09:56:37.409Z,25.25
2022-09-25T09:57:37.404Z,24.99
2022-09-25T09:58:37.384Z,24.77
2022-09-25T09:59:37.421Z,24.26
2022-09-25T10:00:37.368Z,24.45
2022-09-25T10:01:41.372Z,24.73
2022-09-25T10:02:37.443Z,24.99
2022-09-25T10:03:37.346Z,25.11
2022-09-25T10:04:37.358Z,24.93
2022-09-25T10:05:37.318Z,24.01
2022-09-25T10:06:37.322Z,24.17
2022-09-25T10:07:37.299Z,24.58
2022-09-25T10:08:37.286Z,25.03
2022-09-25T10:09:37.325Z,25.08
2022-09-25T10:10:37.277Z,25.07
2022-09-25T10:11:37.274Z,25.25
2022-09-25T10:12:37.258Z,25.31
2022-09-25T10:13:37.245Z,25.80
2022-09-25T10:14:37.226Z,25.68
2022-09-25T10:15:37.329Z,25.80
2022-09-25T10:16:37.201Z,25.43
2022-09-25T10:17:37.191Z,25.63
2022-09-25T10:18:37.178Z,26.22
2022-09-25T10:19:37.238Z,26.37
2022-09-25T10:20:37.161Z,26.31
2022-09-25T10:21:37.156Z,26.84
2022-09-25T10:22:37.144Z,27.32
2022-09-25T10:23:37.121Z,27.80
2022-09-25T10:24:37.141Z,27.83
2022-09-25T10:25:37.147Z,27.85
2022-09-25T10:26:37.111Z,28.01
2022-09-25T10:27:37.093Z,28.27
2022-09-25T10:28:37.076Z,28.59
2022-09-25T10:29:37.082Z,28.75
2022-09-25T10:30:37.154Z,28.01
2022-09-25T10:31:37.034Z,27.70
2022-09-25T10:32:37.029Z,27.65
2022-09-25T10:33:37.026Z,27.96
2022-09-25T10:34:37.000Z,28.02
2022-09-25T10:35:37.046Z,27.74
2022-09-25T10:36:36.992Z,26.75
2022-09-25T10:37:36.974Z,27.05
2022-09-25T10:38:36.961Z,26.53
2022-09-25T10:39:44.748Z,25.36
2022-09-25T10:40:38.121Z,24.95
2022-09-25T10:41:36.940Z,24.06
2022-09-25T10:42:36.928Z,23.96
2022-09-25T10:43:36.918Z,25.04
2022-09-25T10:44:36.920Z,24.38
2022-09-25T10:45:36.920Z,24.43
2022-09-25T10:46:36.937Z,24.18
2022-09-25T10:47:36.861Z,23.69
2022-09-25T10:48:36.862Z,23.98
2022-09-25T10:49:36.844Z,24.58
2022-09-25T10:50:36.912Z,24.02
2022-09-25T10:51:36.837Z,24.50
2022-09-25T10:52:36.822Z,24.86
2022-09-25T10:53:36.811Z,25.11
2022-09-25T10:54:40.523Z,24.96
2022-09-25T10:55:37.817Z,25.28
2022-09-25T10:56:36.790Z,25.18
2022-09-25T10:57:36.780Z,26.16
2022-09-25T10:58:36.763Z,26.41
2022-09-25T10:59:36.763Z,25.07
2022-09-25T11:00:36.772Z,24.88
2022-09-25T11:01:36.913Z,24.42
2022-09-25T11:02:36.791Z,24.57
2022-09-25T11:03:36.692Z,24.68
2022-09-25T11:04:36.675Z,25.40
2022-09-25T11:05:36.709Z,26.16
2022-09-25T11:06:36.674Z,26.85
2022-09-25T11:07:36.657Z,27.30
2022-09-25T11:08:36.660Z,27.95
2022-09-25T11:09:36.643Z,28.35
2022-09-25T11:10:36.684Z,28.23
2022-09-25T11:11:36.612Z,28.15
2022-09-25T11:12:36.600Z,27.68
2022-09-25T11:13:36.592Z,27.18
2022-09-25T11:14:36.612Z,26.13
2022-09-25T11:15:36.590Z,26.77
2022-09-25T11:16:36.619Z,27.30
2022-09-25T11:17:36.571Z,27.52
2022-09-25T11:18:36.543Z,27.98
2022-09-25T11:19:36.531Z,28.10
2022-09-25T11:20:36.558Z,27.39
2022-09-25T11:21:36.510Z,27.60
2022-09-25T11:22:36.498Z,27.89
2022-09-25T11:23:36.498Z,28.41
2022-09-25T11:24:36.485Z,28.78
2022-09-25T11:25:36.498Z,29.05
2022-09-25T11:26:36.460Z,29.53
2022-09-25T11:27:36.439Z,29.88
2022-09-25T11:28:36.448Z,29.79
2022-09-25T11:29:36.418Z,29.86
2022-09-25T11:30:36.558Z,29.88
2022-09-25T11:31:36.398Z,28.32
2022-09-25T11:32:36.403Z,27.77
2022-09-25T11:33:36.363Z,27.87
2022-09-25T11:34:36.352Z,28.26
2022-09-25T11:35:36.378Z,28.81
2022-09-25T11:36:36.341Z,29.02
2022-09-25T11:37:36.353Z,29.44
2022-09-25T11:38:36.338Z,29.73
2022-09-25T11:39:36.316Z,29.91
2022-09-25T11:40:36.346Z,30.12
2022-09-25T11:41:36.305Z,30.39
2022-09-25T11:42:36.274Z,30.34
2022-09-25T11:43:36.282Z,30.43
2022-09-25T11:44:36.270Z,30.10
2022-09-25T11:45:36.278Z,30.09
2022-09-25T11:46:36.252Z,29.98
2022-09-25T11:47:36.257Z,29.86
2022-09-25T11:48:36.221Z,29.93
2022-09-25T11:49:36.232Z,29.42
2022-09-25T11:50:36.246Z,29.50
2022-09-25T11:51:36.193Z,28.70
2022-09-25T11:52:36.183Z,28.25
2022-09-25T11:53:36.169Z,28.70
2022-09-25T11:54:36.740Z,29.17
2022-09-25T11:55:36.155Z,29.39
2022-09-25T11:56:36.227Z,29.31
2022-09-25T11:57:36.156Z,28.19
2022-09-25T11:58:36.139Z,28.64
2022-09-25T11:59:36.106Z,28.93
2022-09-25T12:00:36.150Z,29.29
2022-09-25T12:01:36.171Z,29.71
2022-09-25T12:02:36.116Z,30.21
2022-09-25T12:03:36.056Z,30.44
2022-09-25T12:04:41.267Z,30.65
2022-09-25T12:05:37.035Z,30.57
2022-09-25T12:06:36.011Z,30.00
2022-09-25T12:07:36.000Z,29.78
2022-09-25T12:08:36.018Z,29.88
2022-09-25T12:09:36.055Z,30.05
2022-09-25T12:10:36.019Z,29.87
2022-09-25T12:11:35.976Z,29.91
2022-09-25T12:12:35.973Z,30.48
2022-09-25T12:13:35.954Z,30.81
2022-09-25T12:14:35.985Z,30.68
2022-09-25T12:15:35.924Z,30.02
2022-09-25T12:16:36.059Z,30.37
2022-09-25T12:17:35.903Z,30.46
2022-09-25T12:18:35.897Z,30.57
2022-09-25T12:19:35.941Z,30.19
2022-09-25T12:20:35.903Z,30.32
2022-09-25T12:21:35.879Z,30.32
2022-09-25T12:22:35.863Z,30.31
2022-09-25T12:23:35.842Z,30.09
2022-09-25T12:24:35.884Z,30.19
2022-09-25T12:25:35.836Z,30.35
2022-09-25T12:26:35.827Z,29.68
2022-09-25T12:27:35.817Z,29.91
2022-09-25T12:28:35.796Z,29.73
2022-09-25T12:29:35.826Z,30.02
2022-09-25T12:30:35.829Z,29.45
2022-09-25T12:31:35.783Z,29.79
2022-09-25T12:32:35.761Z,30.18
2022-09-25T12:33:35.758Z,30.44
2022-09-25T12:34:35.773Z,30.47
2022-09-25T12:35:35.731Z,29.47
2022-09-25T12:36:35.711Z,29.81
2022-09-25T12:37:35.700Z,29.87
2022-09-25T12:38:35.690Z,29.50
2022-09-25T12:39:35.700Z,29.16
2022-09-25T12:40:35.722Z,29.22
2022-09-25T12:41:35.650Z,29.24
2022-09-25T12:42:35.661Z,29.49
2022-09-25T12:43:35.669Z,29.29
2022-09-25T12:44:35.688Z,29.23
2022-09-25T12:45:35.645Z,28.96
2022-09-25T12:46:35.620Z,28.26
2022-09-25T12:47:35.580Z,26.99
2022-09-25T12:48:35.605Z,26.45
2022-09-25T12:49:35.647Z,25.69
2022-09-25T12:50:35.604Z,25.46
2022-09-25T12:51:35.564Z,25.50
2022-09-25T12:52:35.551Z,25.62
2022-09-25T12:53:35.540Z,25.81
2022-09-25T12:54:35.532Z,25.58
2022-09-25T12:55:35.532Z,25.59
2022-09-25T12:56:35.499Z,25.11
2022-09-25T12:57:35.492Z,25.41
2022-09-25T12:58:35.482Z,25.47
2022-09-25T12:59:35.482Z,25.70
2022-09-25T13:00:35.509Z,25.87
2022-09-25T13:01:35.554Z,25.84
2022-09-25T13:02:35.439Z,25.40
2022-09-25T13:03:35.447Z,25.41
2022-09-25T13:04:35.470Z,25.25
2022-09-25T13:05:35.397Z,24.57
2022-09-25T13:06:35.411Z,24.40